createdAt,value
2023-03-08T00:00:46.924Z,-0.76
2023-03-08T00:04:48.503Z,-0.84
2023-03-08T00:08:50.095Z,-0.80
2023-03-08T00:12:51.550Z,-0.75
2023-03-08T00:16:53.061Z,-0.77
2023-03-08T00:21:06.786Z,-0.89
2023-03-08T00:25:09.811Z,-0.88
2023-03-08T00:29:11.351Z,-0.91
2023-03-08T00:33:12.871Z,-1.12
2023-03-08T00:37:14.378Z,-1.06
2023-03-08T00:41:16.236Z,-1.09
2023-03-08T00:45:17.706Z,-1.22
2023-03-08T00:49:19.210Z,-1.16
2023-03-08T00:53:20.772Z,-1.26
2023-03-08T00:57:22.221Z,-1.31
2023-03-08T01:01:23.645Z,-1.24
2023-03-08T01:05:25.191Z,-1.23
2023-03-08T01:09:26.697Z,-1.29
2023-03-08T01:13:34.521Z,-1.59
2023-03-08T01:17:35.995Z,-1.52
2023-03-08T01:21:37.505Z,-1.45
2023-03-08T01:25:39.148Z,-1.62
2023-03-08T01:29:40.633Z,-1.53
2023-03-08T01:33:43.777Z,-1.39
2023-03-08T01:37:45.447Z,-1.60
2023-03-08T01:41:46.905Z,-1.61
2023-03-08T01:46:17.891Z,-1.62
2023-03-08T01:50:19.628Z,-1.78
2023-03-08T01:54:26.720Z,-1.83
2023-03-08T01:58:28.339Z,-1.76
2023-03-08T02:02:50.718Z,-1.80
2023-03-08T02:06:52.314Z,-1.73
2023-03-08T02:10:54.025Z,-1.67
2023-03-08T02:14:56.464Z,-1.77
2023-03-08T02:19:01.360Z,-1.68
2023-03-08T02:23:13.567Z,-1.75
2023-03-08T02:27:21.325Z,-1.82
2023-03-08T02:31:22.754Z,-1.88
2023-03-08T02:35:24.521Z,-1.94
2023-03-08T02:39:26.675Z,-2.06
2023-03-08T02:43:28.681Z,-2.07
2023-03-08T02:47:30.183Z,-2.00
2023-03-08T02:51:31.634Z,-1.96
2023-03-08T02:55:36.281Z,-2.00
2023-03-08T02:59:37.776Z,-1.96
2023-03-08T03:03:40.535Z,-1.88
2023-03-08T03:07:43.860Z,-1.93
2023-03-08T03:11:45.342Z,-2.12
2023-03-08T03:15:46.838Z,-2.12
2023-03-08T03:19:48.264Z,-2.01
2023-03-08T03:23:49.844Z,-2.04
2023-03-08T03:27:51.392Z,-2.04
2023-03-08T03:31:52.912Z,-2.26
2023-03-08T03:35:54.376Z,-2.20
2023-03-08T03:39:55.810Z,-2.27
2023-03-08T03:43:58.276Z,-2.27
2023-03-08T03:47:59.730Z,-2.28
2023-03-08T03:52:01.291Z,-2.28
2023-03-08T03:56:15.070Z,-2.17
2023-03-08T04:00:17.146Z,-1.98
2023-03-08T04:04:19.566Z,-2.02
2023-03-08T04:08:21.028Z,-1.92
2023-03-08T04:12:22.540Z,-1.83
2023-03-08T04:16:29.999Z,-1.80
2023-03-08T04:20:31.493Z,-1.82
2023-03-08T04:24:33.076Z,-1.98
2023-03-08T04:28:34.541Z,-2.06
2023-03-08T04:32:36.059Z,-2.11
2023-03-08T04:36:37.965Z,-1.98
2023-03-08T04:40:58.259Z,-1.96
2023-03-08T04:44:59.584Z,-2.02
2023-03-08T04:49:00.990Z,-2.12
2023-03-08T04:53:02.408Z,-2.22
2023-03-08T04:57:04.054Z,-2.26
2023-03-08T05:01:10.702Z,-2.28
2023-03-08T05:05:12.183Z,-2.34
2023-03-08T05:09:13.708Z,-2.35
2023-03-08T05:13:15.281Z,-2.45
2023-03-08T05:17:16.755Z,-2.34
2023-03-08T05:21:20.888Z,-2.28
2023-03-08T05:25:22.439Z,-2.29
2023-03-08T05:29:23.904Z,-2.37
2023-03-08T05:33:25.364Z,-2.43
2023-03-08T05:37:27.565Z,-2.36
2023-03-08T05:41:29.171Z,-2.50
2023-03-08T05:45:30.692Z,-2.43
2023-03-08T05:49:32.122Z,-2.50
2023-03-08T05:53:33.969Z,-2.57
2023-03-08T05:57:36.422Z,-2.70
2023-03-08T06:01:37.979Z,-2.63
2023-03-08T06:05:39.418Z,-2.90
2023-03-08T06:09:40.883Z,-2.78
2023-03-08T06:13:42.673Z,-2.54
2023-03-08T06:17:44.393Z,-2.44
2023-03-08T06:21:45.825Z,-2.50
2023-03-08T06:25:47.259Z,-2.36
2023-03-08T06:29:48.893Z,-2.24
2023-03-08T06:33:50.332Z,-2.13
2023-03-08T06:37:51.795Z,-2.31
2023-03-08T06:41:53.255Z,-2.36
2023-03-08T06:45:54.858Z,-2.31
2023-03-08T06:49:56.514Z,-2.19
2023-03-08T06:53:57.960Z,-1.92
2023-03-08T06:57:59.367Z,-1.93
2023-03-08T07:02:00.836Z,-1.82
2023-03-08T07:06:05.994Z,-1.48
2023-03-08T07:10:08.789Z,-1.39
2023-03-08T07:14:10.244Z,-1.22
2023-03-08T07:18:11.686Z,-1.17
2023-03-08T07:22:13.311Z,-1.18
2023-03-08T07:26:14.773Z,-0.94
2023-03-08T07:30:17.044Z,-1.07
2023-03-08T07:34:18.437Z,-1.06
2023-03-08T07:38:20.170Z,-0.70
2023-03-08T07:42:21.668Z,-0.74
2023-03-08T07:46:23.253Z,-0.71
2023-03-08T07:50:24.858Z,-0.82
2023-03-08T07:54:26.507Z,-0.61
2023-03-08T07:58:28.576Z,-0.64
2023-03-08T08:02:30.036Z,-0.49
2023-03-08T08:06:31.543Z,-0.36
2023-03-08T08:10:33.033Z,-0.13
2023-03-08T08:14:34.589Z,0.09
2023-03-08T08:18:36.321Z,0.49
2023-03-08T08:22:37.885Z,0.45
2023-03-08T08:26:39.392Z,0.56
2023-03-08T08:30:40.858Z,0.63
2023-03-08T08:34:42.419Z,0.51
2023-03-08T08:38:45.995Z,0.52
2023-03-08T08:42:47.440Z,0.67
2023-03-08T08:46:48.883Z,0.52
2023-03-08T08:50:51.174Z,0.86
2023-03-08T08:54:53.336Z,1.27
2023-03-08T08:59:00.134Z,1.01
2023-03-08T09:03:02.717Z,0.99
2023-03-08T09:07:04.289Z,1.01
2023-03-08T09:11:08.563Z,0.80
2023-03-08T09:15:11.575Z,1.24
2023-03-08T09:19:13.050Z,1.37
2023-03-08T09:23:14.612Z,1.15
2023-03-08T09:27:16.505Z,1.28
2023-03-08T09:31:18.465Z,0.96
2023-03-08T09:35:19.967Z,1.35
2023-03-08T09:39:21.759Z,1.76
2023-03-08T09:43:39.471Z,1.95
2023-03-08T09:47:46.984Z,1.51
2023-03-08T09:51:54.172Z,1.66
2023-03-08T09:56:06.890Z,2.47
2023-03-08T10:00:23.227Z,2.43
2023-03-08T10:04:40.733Z,2.36
2023-03-08T10:08:51.592Z,2.24
2023-03-08T10:13:17.171Z,2.47
2023-03-08T10:17:23.374Z,3.94
2023-03-08T10:21:26.763Z,3.64
2023-03-08T10:25:34.205Z,3.02
2023-03-08T10:29:35.725Z,3.17
2023-03-08T10:33:37.273Z,2.41
2023-03-08T10:37:38.811Z,2.14
2023-03-08T10:41:43.638Z,2.63
2023-03-08T10:45:45.132Z,2.18
2023-03-08T10:49:47.454Z,2.61
2023-03-08T10:54:02.594Z,2.43
2023-03-08T10:58:04.578Z,2.49
2023-03-08T11:02:15.492Z,2.78
2023-03-08T11:06:16.999Z,2.61
2023-03-08T11:10:20.672Z,2.31
2023-03-08T11:14:22.652Z,2.70
2023-03-08T11:18:26.870Z,2.86
2023-03-08T11:22:42.951Z,2.78
2023-03-08T11:27:03.117Z,3.35
2023-03-08T11:31:18.779Z,2.93
2023-03-08T11:35:25.436Z,3.30
2023-03-08T11:39:33.326Z,2.73
2023-03-08T11:44:18.605Z,2.81
2023-03-08T11:49:04.479Z,2.61
2023-03-08T11:53:28.856Z,2.81
2023-03-08T11:57:34.873Z,2.35
2023-03-08T12:01:48.844Z,2.63
2023-03-08T12:06:08.557Z,2.26
2023-03-08T12:10:23.753Z,2.57
2023-03-08T12:14:34.029Z,2.77
2023-03-08T12:18:56.026Z,2.72
2023-03-08T12:23:06.609Z,2.80
2023-03-08T12:27:10.455Z,2.73
2023-03-08T12:31:27.892Z,2.62
2023-03-08T12:35:33.795Z,2.75
2023-03-08T12:39:36.774Z,2.88
2023-03-08T12:43:38.635Z,2.78
2023-03-08T12:47:40.225Z,2.91
2023-03-08T12:51:41.809Z,2.92
2023-03-08T12:55:43.546Z,3.12
2023-03-08T12:59:45.616Z,3.04
2023-03-08T13:03:47.081Z,2.56
2023-03-08T13:08:14.918Z,2.69
2023-03-08T13:12:16.307Z,2.76
2023-03-08T13:16:18.246Z,2.58
2023-03-08T13:20:21.448Z,2.24
2023-03-08T13:24:31.729Z,2.14
2023-03-08T13:28:46.684Z,1.82
2023-03-08T13:32:50.096Z,2.10
2023-03-08T13:36:51.588Z,2.26
2023-03-08T13:40:54.989Z,2.18
2023-03-08T13:45:17.023Z,2.18
2023-03-08T13:49:32.539Z,2.04
2023-03-08T13:53:37.272Z,1.88
2023-03-08T13:57:41.939Z,1.96
2023-03-08T14:01:51.388Z,1.81
2023-03-08T14:05:52.874Z,1.63
2023-03-08T14:09:55.439Z,1.44
2023-03-08T14:13:59.080Z,1.34
2023-03-08T14:18:00.751Z,1.55
2023-03-08T14:22:14.043Z,1.48
2023-03-08T14:26:32.447Z,1.33
2023-03-08T14:30:33.985Z,1.30
2023-03-08T14:34:39.529Z,1.51
2023-03-08T14:38:41.070Z,1.49
2023-03-08T14:42:48.714Z,1.70
2023-03-08T14:46:58.112Z,1.73
2023-03-08T14:51:02.529Z,1.77
2023-03-08T14:55:18.766Z,1.56
2023-03-08T14:59:27.792Z,1.46
2023-03-08T15:03:31.713Z,1.41
2023-03-08T15:07:36.054Z,1.48
2023-03-08T15:11:37.592Z,1.38
2023-03-08T15:15:39.119Z,1.47
2023-03-08T15:19:40.584Z,1.53
2023-03-08T15:23:43.336Z,1.49
2023-03-08T15:27:44.887Z,1.22
2023-03-08T15:31:46.350Z,0.98
2023-03-08T15:35:48.848Z,0.77
2023-03-08T15:39:50.331Z,0.67
2023-03-08T15:43:54.378Z,1.07
2023-03-08T15:48:02.854Z,1.00
2023-03-08T15:52:05.533Z,0.98
2023-03-08T15:56:08.316Z,0.88
2023-03-08T16:00:12.519Z,0.62
2023-03-08T16:04:13.997Z,0.43
2023-03-08T16:08:15.418Z,0.46
2023-03-08T16:12:16.941Z,0.28
2023-03-08T16:16:19.909Z,0.53
2023-03-08T16:20:23.161Z,0.51
2023-03-08T16:24:24.729Z,0.41
2023-03-08T16:28:26.341Z,0.36
2023-03-08T16:32:28.269Z,0.47
2023-03-08T16:36:29.864Z,0.47
2023-03-08T16:40:32.986Z,0.14
2023-03-08T16:44:34.474Z,0.16
2023-03-08T16:48:35.994Z,0.52
2023-03-08T16:52:37.486Z,0.19
2023-03-08T16:56:43.029Z,0.22
2023-03-08T17:00:44.611Z,0.26
2023-03-08T17:04:46.968Z,0.06
2023-03-08T17:08:49.013Z,0.05
2023-03-08T17:12:50.568Z,0.27
2023-03-08T17:16:52.043Z,0.27
2023-03-08T17:20:53.696Z,-0.11
2023-03-08T17:24:55.199Z,0.18
2023-03-08T17:28:56.796Z,0.22
2023-03-08T17:32:58.321Z,0.00
2023-03-08T17:36:59.756Z,-0.04
2023-03-08T17:41:05.841Z,-0.05
2023-03-08T17:45:08.060Z,0.05
2023-03-08T17:49:11.942Z,0.14
2023-03-08T17:53:13.398Z,0.12
2023-03-08T17:57:15.975Z,0.20
2023-03-08T18:01:20.688Z,0.12
2023-03-08T18:05:22.142Z,0.07
2023-03-08T18:09:23.946Z,0.01
2023-03-08T18:13:25.881Z,0.18
2023-03-08T18:17:27.422Z,0.10
2023-03-08T18:21:31.928Z,0.14
2023-03-08T18:25:34.374Z,0.10
2023-03-08T18:29:36.661Z,0.20
2023-03-08T18:33:38.351Z,0.29
2023-03-08T18:37:39.772Z,0.32
2023-03-08T18:41:41.609Z,0.18
2023-03-08T18:45:54.088Z,-0.08
2023-03-08T18:49:55.623Z,0.00
2023-03-08T18:53:58.467Z,0.02
2023-03-08T18:57:59.917Z,0.02
2023-03-08T19:02:01.497Z,0.19
2023-03-08T19:06:04.713Z,-0.04
2023-03-08T19:10:06.602Z,0.04
2023-03-08T19:14:09.305Z,0.14
2023-03-08T19:18:10.928Z,0.09
2023-03-08T19:22:12.499Z,0.01
2023-03-08T19:26:36.036Z,-0.06
2023-03-08T19:30:37.492Z,0.12
2023-03-08T19:34:42.225Z,0.08
2023-03-08T19:38:43.774Z,0.11
2023-03-08T19:42:45.247Z,0.10
2023-03-08T19:46:47.455Z,0.18
2023-03-08T19:50:48.886Z,0.02
2023-03-08T19:54:50.466Z,0.00
2023-03-08T19:58:55.355Z,-0.13
2023-03-08T20:02:56.838Z,-0.02
2023-03-08T20:07:01.548Z,-0.09
2023-03-08T20:11:03.698Z,0.03
2023-03-08T20:15:05.612Z,-0.14
2023-03-08T20:19:07.195Z,-0.09
2023-03-08T20:23:08.859Z,-0.01
2023-03-08T20:27:10.392Z,-0.03
2023-03-08T20:31:12.827Z,0.01
2023-03-08T20:35:14.975Z,0.03
2023-03-08T20:39:16.536Z,0.12
2023-03-08T20:43:18.004Z,0.09
2023-03-08T20:47:19.448Z,0.03
2023-03-08T20:51:22.026Z,0.15
2023-03-08T20:55:23.508Z,-0.01
2023-03-08T20:59:26.938Z,-0.02
2023-03-08T21:03:28.566Z,0.01
2023-03-08T21:07:31.140Z,0.01
2023-03-08T21:11:32.783Z,0.02
2023-03-08T21:15:35.092Z,0.05
2023-03-08T21:19:36.852Z,0.03
2023-03-08T21:23:38.291Z,-0.10
2023-03-08T21:27:39.760Z,-0.05
2023-03-08T21:31:44.544Z,0.14
2023-03-08T21:35:46.109Z,0.09
2023-03-08T21:39:47.717Z,0.12
2023-03-08T21:43:49.607Z,0.28
2023-03-08T21:47:51.084Z,0.17
2023-03-08T21:51:54.150Z,0.66
2023-03-08T21:55:55.639Z,0.86
2023-03-08T21:59:57.142Z,0.52
2023-03-08T22:03:59.950Z,0.23
2023-03-08T22:08:01.394Z,0.18
2023-03-08T22:12:02.867Z,0.15
2023-03-08T22:16:05.147Z,0.10
2023-03-08T22:20:10.415Z,0.18
2023-03-08T22:24:11.918Z,0.17
2023-03-08T22:28:13.736Z,0.04
2023-03-08T22:32:15.512Z,0.04
2023-03-08T22:36:19.364Z,0.22
2023-03-08T22:40:20.780Z,0.09
2023-03-08T22:44:22.267Z,0.02
2023-03-08T22:48:23.728Z,0.03
2023-03-08T22:52:25.211Z,0.09
2023-03-08T22:56:30.186Z,0.04
2023-03-08T23:00:31.713Z,0.01
2023-03-08T23:04:33.275Z,-0.14
2023-03-08T23:08:34.860Z,-0.04
2023-03-08T23:12:36.804Z,0.09
2023-03-08T23:16:41.969Z,0.01
2023-03-08T23:20:43.510Z,-0.06
2023-03-08T23:24:45.664Z,-0.06
2023-03-08T23:28:47.446Z,-0.10
2023-03-08T23:32:49.058Z,-0.23
2023-03-08T23:36:50.632Z,-0.03
2023-03-08T23:40:52.081Z,-0.04
2023-03-08T23:44:53.636Z,-0.10
2023-03-08T23:48:56.917Z,-0.04
2023-03-08T23:52:58.363Z,-0.16
2023-03-08T23:56:59.791Z,-0.15
